createdAt,value
2019-01-19T00:01:39.033Z,14.27
2019-01-19T00:04:22.817Z,13.23
2019-01-19T00:07:12.707Z,14.90
2019-01-19T00:09:56.308Z,14.43
2019-01-19T00:12:33.994Z,17.33
2019-01-19T00:15:04.025Z,13.43
2019-01-19T00:17:47.879Z,17.03
2019-01-19T00:20:22.939Z,14.10
2019-01-19T00:23:10.034Z,15.60
2019-01-19T00:26:04.478Z,15.13
2019-01-19T00:28:36.595Z,14.10
2019-01-19T00:31:11.526Z,24.83
2019-01-19T00:33:52.427Z,14.73
2019-01-19T00:36:27.327Z,13.93
2019-01-19T00:39:17.140Z,13.87
2019-01-19T00:42:10.131Z,17.77
2019-01-19T00:44:42.244Z,16.83
2019-01-19T00:47:29.066Z,15.20
2019-01-19T00:50:03.884Z,12.27
2019-01-19T00:52:38.626Z,15.50
2019-01-19T00:55:13.621Z,17.27
2019-01-19T00:57:57.624Z,18.87
2019-01-19T01:00:35.380Z,17.13
2019-01-19T01:03:07.501Z,12.90
2019-01-19T01:05:39.567Z,19.60
2019-01-19T01:08:26.434Z,16.10
2019-01-19T01:11:01.395Z,15.77
2019-01-19T01:13:42.447Z,15.97
2019-01-19T01:16:17.479Z,15.43
2019-01-19T01:19:07.214Z,18.07
2019-01-19T01:21:48.032Z,14.63
2019-01-19T01:24:35.064Z,17.07
2019-01-19T01:27:09.729Z,18.17
2019-01-19T01:29:58.475Z,21.33
2019-01-19T01:32:36.440Z,15.80
2019-01-19T01:35:23.359Z,21.83
2019-01-19T01:37:57.957Z,17.63
2019-01-19T01:40:46.551Z,20.20
2019-01-19T01:43:18.616Z,18.77
2019-01-19T01:46:05.465Z,17.37
2019-01-19T01:48:55.246Z,15.93
2019-01-19T01:51:30.103Z,16.83
2019-01-19T01:54:04.800Z,21.93
2019-01-19T01:56:33.797Z,18.83
2019-01-19T01:59:18.103Z,23.33
2019-01-19T02:02:02.176Z,18.70
2019-01-19T02:04:55.520Z,18.37
2019-01-19T02:07:33.405Z,17.07
2019-01-19T02:10:21.880Z,18.47
2019-01-19T02:13:02.619Z,18.83
2019-01-19T02:15:46.670Z,18.60
2019-01-19T02:18:41.171Z,21.40
2019-01-19T02:21:41.502Z,15.70
2019-01-19T02:24:32.748Z,23.10
2019-01-19T02:27:07.449Z,14.53
2019-01-19T02:29:45.215Z,17.93
2019-01-19T02:32:29.292Z,16.30
2019-01-19T02:35:01.355Z,13.47
2019-01-19T02:37:39.377Z,13.30
2019-01-19T02:40:11.427Z,15.00
2019-01-19T02:43:02.994Z,19.57
2019-01-19T02:45:57.210Z,12.40
2019-01-19T02:48:31.863Z,18.33
2019-01-19T02:51:04.018Z,15.20
2019-01-19T02:53:36.065Z,13.90
2019-01-19T02:56:11.214Z,16.13
2019-01-19T02:58:58.641Z,13.03
2019-01-19T03:01:30.756Z,15.27
2019-01-19T03:04:20.411Z,17.13
2019-01-19T03:06:58.250Z,14.23
2019-01-19T03:09:35.822Z,16.17
2019-01-19T03:12:25.592Z,16.07
2019-01-19T03:15:09.546Z,17.63
2019-01-19T03:17:47.514Z,14.30
2019-01-19T03:20:25.219Z,15.00
2019-01-19T03:22:57.342Z,18.80
2019-01-19T03:25:35.217Z,17.63
2019-01-19T03:28:26.788Z,16.50
2019-01-19T03:31:01.522Z,18.13
2019-01-19T03:33:45.321Z,18.53
2019-01-19T03:36:36.816Z,15.93
2019-01-19T03:39:29.016Z,19.80
2019-01-19T03:42:01.469Z,15.97
2019-01-19T03:44:33.591Z,16.73
2019-01-19T03:47:11.493Z,14.80
2019-01-19T03:49:46.570Z,16.37
2019-01-19T03:52:27.334Z,16.53
2019-01-19T03:55:15.552Z,13.40
2019-01-19T03:58:05.696Z,15.53
2019-01-19T04:00:55.657Z,15.37
2019-01-19T04:03:45.451Z,18.10
2019-01-19T04:06:29.128Z,13.40
2019-01-19T04:09:12.865Z,18.60
2019-01-19T04:11:44.930Z,15.07
2019-01-19T04:14:22.992Z,18.97
2019-01-19T04:17:17.046Z,17.13
2019-01-19T04:19:51.683Z,14.20
2019-01-19T04:22:23.857Z,13.53
2019-01-19T04:24:55.965Z,13.40
2019-01-19T04:27:24.909Z,18.63
2019-01-19T04:29:53.909Z,19.47
2019-01-19T04:32:22.853Z,14.00
2019-01-19T04:34:51.851Z,18.43
2019-01-19T04:37:20.874Z,17.60
2019-01-19T04:39:49.889Z,17.80
2019-01-19T04:42:19.136Z,13.27
2019-01-19T04:44:48.141Z,16.00
2019-01-19T04:47:17.079Z,14.97
2019-01-19T04:49:46.177Z,16.43
2019-01-19T04:52:15.233Z,14.50
2019-01-19T04:54:44.212Z,17.13
2019-01-19T04:57:13.144Z,21.10
2019-01-19T04:59:42.151Z,17.90
2019-01-19T05:02:11.096Z,17.83
2019-01-19T05:04:40.093Z,15.50
2019-01-19T05:07:09.129Z,18.47
2019-01-19T05:09:38.145Z,15.53
2019-01-19T05:12:07.082Z,14.63
2019-01-19T05:14:36.091Z,12.80
2019-01-19T05:17:05.022Z,15.77
2019-01-19T05:19:41.246Z,14.93
2019-01-19T05:22:10.175Z,13.20
2019-01-19T05:24:39.169Z,17.67
2019-01-19T05:27:08.207Z,23.63
2019-01-19T05:29:37.210Z,15.87
2019-01-19T05:32:06.166Z,17.27
2019-01-19T05:34:35.196Z,12.27
2019-01-19T05:37:04.186Z,14.33
2019-01-19T05:39:33.121Z,14.27
2019-01-19T05:42:02.119Z,15.93
2019-01-19T05:44:31.044Z,15.80
2019-01-19T05:47:00.046Z,15.67
2019-01-19T05:49:28.982Z,17.03
2019-01-19T05:51:57.990Z,18.17
2019-01-19T05:54:27.015Z,15.70
2019-01-19T05:56:56.019Z,18.73
2019-01-19T05:59:24.965Z,18.83
2019-01-19T06:01:53.962Z,53.93
2019-01-19T06:04:22.992Z,42.30
2019-01-19T06:06:51.990Z,42.33
2019-01-19T06:09:20.930Z,35.25
2019-01-19T06:11:49.931Z,35.60
2019-01-19T06:14:18.863Z,33.07
2019-01-19T06:16:47.879Z,27.70
2019-01-19T06:19:17.106Z,28.83
2019-01-19T06:21:47.679Z,34.53
2019-01-19T06:24:16.610Z,14.33
2019-01-19T06:26:45.604Z,20.50
2019-01-19T06:29:14.542Z,15.23
2019-01-19T06:31:43.546Z,21.83
2019-01-19T06:34:12.481Z,17.53
2019-01-19T06:36:41.485Z,16.80
2019-01-19T06:39:10.409Z,25.17
2019-01-19T06:41:39.508Z,20.83
2019-01-19T06:44:08.448Z,21.80
2019-01-19T06:46:37.385Z,24.67
2019-01-19T06:49:06.482Z,28.73
2019-01-19T06:51:35.414Z,17.70
2019-01-19T06:54:04.514Z,21.70
2019-01-19T06:56:33.458Z,15.63
2019-01-19T06:59:02.564Z,19.30
2019-01-19T07:01:31.506Z,26.27
2019-01-19T07:04:00.522Z,16.07
2019-01-19T07:06:29.454Z,18.97
2019-01-19T07:08:58.555Z,20.40
2019-01-19T07:11:27.487Z,24.30
2019-01-19T07:13:56.503Z,19.03
2019-01-19T07:16:25.435Z,20.10
2019-01-19T07:18:54.425Z,27.93
2019-01-19T07:21:23.467Z,31.07
2019-01-19T07:23:52.599Z,27.13
2019-01-19T07:26:21.628Z,35.27
2019-01-19T07:28:50.636Z,29.83
2019-01-19T07:31:19.568Z,24.63
2019-01-19T07:33:48.673Z,33.50
2019-01-19T07:36:17.636Z,20.07
2019-01-19T07:38:46.714Z,15.37
2019-01-19T07:41:15.651Z,22.30
2019-01-19T07:43:44.755Z,18.17
2019-01-19T07:46:14.090Z,18.23
2019-01-19T07:48:43.093Z,24.77
2019-01-19T07:51:12.136Z,21.43
2019-01-19T07:53:41.068Z,27.27
2019-01-19T07:56:10.075Z,32.70
2019-01-19T07:58:38.999Z,25.23
2019-01-19T08:01:08.108Z,18.53
2019-01-19T08:03:37.045Z,16.30
2019-01-19T08:06:06.052Z,16.73
2019-01-19T08:08:35.004Z,14.83
2019-01-19T08:11:04.009Z,16.73
2019-01-19T08:13:32.942Z,17.20
2019-01-19T08:16:02.056Z,15.00
2019-01-19T08:18:31.085Z,18.50
2019-01-19T08:21:00.080Z,15.63
2019-01-19T08:23:29.038Z,21.27
2019-01-19T08:25:58.148Z,16.50
2019-01-19T08:28:27.088Z,17.33
2019-01-19T08:30:56.184Z,19.10
2019-01-19T08:33:25.218Z,10.93
2019-01-19T08:35:54.428Z,15.60
2019-01-19T08:38:23.467Z,15.77
2019-01-19T08:40:52.479Z,11.77
2019-01-19T08:43:29.089Z,20.43
2019-01-19T08:45:58.081Z,11.63
2019-01-19T08:48:27.104Z,11.23
2019-01-19T08:50:56.215Z,10.60
2019-01-19T08:53:25.139Z,22.63
2019-01-19T08:55:54.244Z,55.20
2019-01-19T08:58:23.273Z,26.13
2019-01-19T09:00:52.369Z,12.90
2019-01-19T09:03:21.301Z,12.83
2019-01-19T09:05:50.234Z,11.33
2019-01-19T09:08:19.218Z,11.33
2019-01-19T09:10:48.156Z,14.77
2019-01-19T09:13:17.163Z,10.93
2019-01-19T09:15:46.184Z,12.83
2019-01-19T09:18:15.284Z,11.17
2019-01-19T09:20:44.212Z,11.17
2019-01-19T09:23:17.248Z,13.90
2019-01-19T09:25:46.180Z,9.90
2019-01-19T09:28:15.170Z,11.63
2019-01-19T09:30:44.098Z,10.50
2019-01-19T09:33:13.088Z,11.83
2019-01-19T09:35:42.113Z,11.43
2019-01-19T09:38:11.199Z,8.63
2019-01-19T09:40:40.123Z,9.10
2019-01-19T09:43:09.240Z,12.17
2019-01-19T09:45:38.164Z,11.07
2019-01-19T09:48:07.291Z,9.40
2019-01-19T09:50:36.223Z,9.70
2019-01-19T09:53:05.310Z,8.97
2019-01-19T09:55:34.339Z,10.77
2019-01-19T09:58:03.435Z,9.70
2019-01-19T10:00:37.573Z,10.50
2019-01-19T10:03:02.912Z,8.90
2019-01-19T10:05:31.840Z,9.77
2019-01-19T10:08:00.923Z,8.23
2019-01-19T10:10:29.947Z,8.63
2019-01-19T10:12:58.929Z,9.40
2019-01-19T10:15:27.964Z,10.90
2019-01-19T10:17:57.050Z,10.70
2019-01-19T10:20:30.992Z,10.47
2019-01-19T10:23:00.082Z,12.50
2019-01-19T10:25:29.005Z,7.73
2019-01-19T10:27:57.920Z,8.00
2019-01-19T10:30:31.295Z,12.23
2019-01-19T10:33:00.387Z,9.47
2019-01-19T10:35:29.309Z,8.30
2019-01-19T10:37:58.269Z,7.17
2019-01-19T10:40:27.266Z,7.00
2019-01-19T10:42:56.182Z,8.30
2019-01-19T10:45:29.732Z,7.30
2019-01-19T10:47:58.409Z,5.53
2019-01-19T10:50:27.477Z,7.67
2019-01-19T10:52:56.412Z,11.70
2019-01-19T10:55:25.663Z,8.27
2019-01-19T10:57:54.597Z,5.83
2019-01-19T11:00:26.438Z,7.33
2019-01-19T11:02:56.168Z,8.37
2019-01-19T11:05:25.399Z,9.60
2019-01-19T11:08:03.620Z,6.13
2019-01-19T11:10:32.773Z,6.03
2019-01-19T11:13:01.815Z,6.80
2019-01-19T11:15:31.093Z,6.63
2019-01-19T11:18:00.176Z,5.73
2019-01-19T11:20:32.503Z,6.97
2019-01-19T11:23:01.944Z,5.93
2019-01-19T11:25:31.140Z,7.53
2019-01-19T11:28:00.198Z,7.47
2019-01-19T11:30:30.890Z,8.03
2019-01-19T11:32:59.936Z,6.30
2019-01-19T11:35:29.096Z,4.97
2019-01-19T11:37:58.139Z,7.10
2019-01-19T11:40:36.117Z,6.13
2019-01-19T11:43:06.745Z,6.70
2019-01-19T11:45:40.973Z,6.63
2019-01-19T11:48:09.976Z,7.53
2019-01-19T11:50:38.997Z,5.20
2019-01-19T11:53:08.013Z,5.57
2019-01-19T11:55:37.003Z,5.10
2019-01-19T11:58:05.941Z,8.57
2019-01-19T12:00:37.046Z,6.10
2019-01-19T12:03:09.353Z,4.73
2019-01-19T12:05:39.917Z,4.57
2019-01-19T12:08:09.844Z,3.13
2019-01-19T12:10:38.947Z,4.63
2019-01-19T12:13:07.983Z,4.77
2019-01-19T12:15:36.973Z,9.43
2019-01-19T12:18:05.919Z,5.00
2019-01-19T12:20:37.532Z,4.57
2019-01-19T12:23:07.273Z,3.93
2019-01-19T12:25:36.303Z,3.97
2019-01-19T12:28:05.402Z,5.33
2019-01-19T12:30:35.356Z,4.70
2019-01-19T12:33:04.840Z,3.77
2019-01-19T12:35:33.767Z,5.03
2019-01-19T12:38:03.362Z,5.10
2019-01-19T12:40:32.281Z,4.43
2019-01-19T12:43:04.243Z,3.83
2019-01-19T12:45:36.334Z,5.57
2019-01-19T12:48:05.317Z,9.80
2019-01-19T12:50:34.348Z,5.17
2019-01-19T12:53:03.458Z,5.27
2019-01-19T12:55:32.374Z,4.77
2019-01-19T12:58:01.471Z,4.07
2019-01-19T13:00:30.504Z,6.50
2019-01-19T13:02:59.505Z,5.33
2019-01-19T13:05:34.600Z,4.00
2019-01-19T13:08:05.515Z,5.13
2019-01-19T13:10:37.565Z,14.87
2019-01-19T13:13:07.850Z,8.27
2019-01-19T13:15:45.867Z,8.80
2019-01-19T13:18:35.844Z,9.97
2019-01-19T13:21:27.200Z,8.93
2019-01-19T13:24:15.464Z,10.90
2019-01-19T13:26:53.164Z,8.93
2019-01-19T13:29:37.290Z,8.43
2019-01-19T13:32:12.155Z,8.33
2019-01-19T13:35:07.883Z,10.33
2019-01-19T13:37:57.592Z,9.73
2019-01-19T13:41:01.168Z,11.90
2019-01-19T13:44:07.847Z,10.03
2019-01-19T13:46:56.323Z,10.90
2019-01-19T13:50:03.042Z,12.60
2019-01-19T13:52:38.074Z,13.20
2019-01-19T13:55:19.268Z,12.03
2019-01-19T13:57:54.095Z,10.73
2019-01-19T14:01:00.533Z,13.77
2019-01-19T14:07:12.997Z,13.90
2019-01-19T14:09:45.202Z,14.30
2019-01-19T14:12:38.498Z,13.43
2019-01-19T14:15:19.730Z,12.87
2019-01-19T14:17:57.951Z,12.80
2019-01-19T14:20:38.756Z,12.80
2019-01-19T14:23:13.823Z,13.03
2019-01-19T14:25:45.922Z,12.67
2019-01-19T14:28:26.660Z,17.07
2019-01-19T14:31:25.675Z,11.93
2019-01-19T14:34:15.931Z,13.17
2019-01-19T14:37:12.054Z,12.23
2019-01-19T14:39:52.844Z,12.60
2019-01-19T14:42:33.397Z,14.33
2019-01-19T14:45:20.248Z,17.53
2019-01-19T14:48:02.382Z,14.67
2019-01-19T14:50:37.074Z,17.20
2019-01-19T14:53:17.799Z,18.37
2019-01-19T14:55:52.628Z,16.00
2019-01-19T14:58:39.558Z,17.40
2019-01-19T15:01:26.714Z,15.07
2019-01-19T15:04:04.335Z,13.57
2019-01-19T15:06:36.548Z,15.47
2019-01-19T15:09:23.421Z,20.03
2019-01-19T15:12:26.951Z,18.10
2019-01-19T15:15:17.122Z,12.73
2019-01-19T15:17:52.057Z,16.23
2019-01-19T15:20:24.215Z,16.53
2019-01-19T15:23:20.494Z,24.50
2019-01-19T15:26:01.392Z,31.20
2019-01-19T15:28:33.451Z,19.73
2019-01-19T15:31:14.168Z,16.43
2019-01-19T15:34:11.885Z,16.87
2019-01-19T15:36:53.066Z,18.30
2019-01-19T15:39:27.764Z,17.37
2019-01-19T15:42:05.768Z,22.73
2019-01-19T15:44:37.831Z,16.77
2019-01-19T15:47:15.868Z,21.87
2019-01-19T15:49:53.854Z,17.07
2019-01-19T15:52:28.603Z,19.80
2019-01-19T15:55:06.410Z,23.03
2019-01-19T15:57:38.540Z,18.43
2019-01-19T16:00:22.559Z,18.40
2019-01-19T16:03:03.960Z,16.17
2019-01-19T16:05:54.039Z,17.53
2019-01-19T16:08:35.091Z,19.90
2019-01-19T16:11:18.879Z,18.03
2019-01-19T16:14:06.076Z,21.30
2019-01-19T16:16:49.558Z,21.57
2019-01-19T16:19:30.288Z,18.10
2019-01-19T16:22:11.335Z,16.57
2019-01-19T16:24:55.413Z,21.27
2019-01-19T16:27:42.383Z,23.70
2019-01-19T16:30:32.343Z,19.17
2019-01-19T16:33:16.460Z,20.13
2019-01-19T16:35:57.602Z,21.27
2019-01-19T16:38:29.832Z,23.53
2019-01-19T16:41:26.034Z,19.73
2019-01-19T16:44:09.925Z,21.30
2019-01-19T16:46:58.123Z,18.77
2019-01-19T16:49:39.158Z,23.43
2019-01-19T16:52:13.917Z,22.53
2019-01-19T16:54:58.068Z,23.73
2019-01-19T16:57:33.206Z,29.40
2019-01-19T17:00:20.242Z,23.67
2019-01-19T17:03:07.063Z,24.33
2019-01-19T17:05:39.180Z,23.80
2019-01-19T17:08:17.219Z,23.63
2019-01-19T17:10:58.042Z,23.37
2019-01-19T17:13:50.842Z,22.80
2019-01-19T17:16:31.536Z,25.23
2019-01-19T17:19:03.666Z,27.77
2019-01-19T17:21:55.031Z,24.57
2019-01-19T17:24:39.126Z,24.53
2019-01-19T17:27:25.999Z,22.70
2019-01-19T17:29:58.115Z,29.67
2019-01-19T17:32:49.384Z,26.00
2019-01-19T17:35:37.216Z,25.47
2019-01-19T17:38:17.936Z,23.67
2019-01-19T17:41:07.919Z,24.83
2019-01-19T17:43:57.645Z,23.67
2019-01-19T17:46:35.446Z,26.40
2019-01-19T17:49:16.126Z,31.37
2019-01-19T17:52:07.686Z,24.00
2019-01-19T17:54:51.432Z,26.27
2019-01-19T17:57:44.816Z,23.67
2019-01-19T18:00:17.039Z,23.57
2019-01-19T18:02:52.000Z,24.10
2019-01-19T18:05:36.152Z,22.67
2019-01-19T18:08:14.060Z,26.33
2019-01-19T18:10:51.658Z,24.50
2019-01-19T18:13:26.843Z,28.40
2019-01-19T18:16:21.212Z,27.10
2019-01-19T18:18:53.280Z,23.80
2019-01-19T18:21:34.324Z,35.33
2019-01-19T18:24:06.374Z,28.30
2019-01-19T18:26:38.588Z,26.47
2019-01-19T18:29:35.675Z,31.37
2019-01-19T18:32:13.482Z,25.53
2019-01-19T18:34:54.481Z,24.77
2019-01-19T18:37:31.792Z,31.87
2019-01-19T18:40:06.732Z,23.47
2019-01-19T18:42:42.720Z,27.93
2019-01-19T18:45:37.520Z,28.23
2019-01-19T18:48:15.356Z,27.50
2019-01-19T18:51:05.545Z,27.37
2019-01-19T18:53:40.843Z,32.33
2019-01-19T18:56:21.766Z,27.27
2019-01-19T18:58:56.599Z,24.60
2019-01-19T19:01:28.654Z,30.53
2019-01-19T19:04:29.312Z,29.03
2019-01-19T19:07:18.057Z,33.03
2019-01-19T19:10:02.286Z,27.03
2019-01-19T19:12:37.926Z,27.83
2019-01-19T19:15:26.182Z,28.93
2019-01-19T19:18:13.016Z,29.37
2019-01-19T19:20:45.072Z,28.70
2019-01-19T19:23:20.115Z,30.27
2019-01-19T19:26:06.883Z,27.70
2019-01-19T19:28:50.911Z,27.03
2019-01-19T19:31:40.973Z,29.30
2019-01-19T19:34:16.106Z,27.90
2019-01-19T19:36:51.109Z,29.17
2019-01-19T19:39:37.924Z,25.90
2019-01-19T19:42:22.019Z,27.47
2019-01-19T19:44:54.167Z,31.50
2019-01-19T19:47:35.006Z,27.73
2019-01-19T19:50:19.104Z,30.73
2019-01-19T19:52:48.042Z,29.50
2019-01-19T19:55:16.122Z,28.70
2019-01-19T19:57:45.056Z,29.53
2019-01-19T20:00:14.164Z,33.93
2019-01-19T20:02:43.206Z,29.23
2019-01-19T20:05:13.329Z,34.27
2019-01-19T20:07:42.480Z,28.97
2019-01-19T20:10:17.089Z,28.00
2019-01-19T20:12:43.155Z,32.80
2019-01-19T20:15:12.270Z,29.50
2019-01-19T20:17:41.204Z,32.00
2019-01-19T20:20:11.011Z,34.70
2019-01-19T20:22:40.060Z,42.50
2019-01-19T20:25:09.061Z,32.87
2019-01-19T20:27:38.006Z,32.57
2019-01-19T20:30:10.120Z,35.40
2019-01-19T20:32:39.056Z,33.77
2019-01-19T20:35:08.762Z,34.50
2019-01-19T20:37:37.801Z,28.97
2019-01-19T20:40:09.210Z,29.90
2019-01-19T20:42:38.145Z,30.27
2019-01-19T20:45:14.552Z,30.03
2019-01-19T20:47:43.605Z,32.80
2019-01-19T20:50:13.211Z,31.17
2019-01-19T20:52:42.135Z,29.03
2019-01-19T20:55:11.841Z,32.33
2019-01-19T20:57:40.898Z,38.20
2019-01-19T21:00:16.186Z,34.50
2019-01-19T21:02:45.223Z,36.17
2019-01-19T21:05:14.244Z,31.23
2019-01-19T21:07:43.199Z,33.07
2019-01-19T21:10:12.210Z,28.30
2019-01-19T21:12:41.152Z,39.63
2019-01-19T21:15:13.396Z,35.50
2019-01-19T21:17:42.454Z,28.97
2019-01-19T21:20:14.557Z,32.10
2019-01-19T21:22:43.625Z,37.83
2019-01-19T21:25:13.767Z,35.83
2019-01-19T21:27:42.845Z,30.70
2019-01-19T21:30:14.035Z,33.07
2019-01-19T21:32:43.135Z,28.83
2019-01-19T21:35:12.172Z,38.93
2019-01-19T21:37:41.167Z,30.93
2019-01-19T21:40:12.813Z,35.03
2019-01-19T21:42:41.820Z,32.67
2019-01-19T21:45:13.828Z,36.17
2019-01-19T21:47:42.943Z,33.30
2019-01-19T21:50:12.382Z,35.60
2019-01-19T21:52:41.391Z,30.20
2019-01-19T21:55:10.743Z,31.00
2019-01-19T21:57:39.857Z,38.20
2019-01-19T22:00:17.715Z,39.40
2019-01-19T22:02:46.815Z,31.53
2019-01-19T22:05:15.752Z,38.10
2019-01-19T22:07:44.755Z,35.07
2019-01-19T22:10:16.496Z,32.03
2019-01-19T22:12:45.526Z,33.47
2019-01-19T22:15:16.477Z,31.17
2019-01-19T22:17:45.587Z,33.60
2019-01-19T22:20:16.621Z,35.10
2019-01-19T22:22:45.720Z,34.57
2019-01-19T22:25:14.661Z,31.07
2019-01-19T22:27:45.242Z,37.10
2019-01-19T22:30:22.389Z,37.67
2019-01-19T22:32:52.961Z,32.83
2019-01-19T22:35:23.470Z,31.47
2019-01-19T22:37:52.468Z,35.07
2019-01-19T22:40:21.401Z,33.73
2019-01-19T22:42:51.000Z,35.80
2019-01-19T22:45:19.941Z,36.83
2019-01-19T22:47:48.970Z,32.80
2019-01-19T22:50:18.998Z,35.07
2019-01-19T22:52:48.050Z,34.67
2019-01-19T22:55:17.636Z,42.43
2019-01-19T22:57:46.664Z,31.47
2019-01-19T23:00:51.607Z,35.30
2019-01-19T23:03:20.628Z,36.60
2019-01-19T23:05:49.936Z,48.67
2019-01-19T23:08:18.868Z,47.27
2019-01-19T23:10:47.871Z,47.87
2019-01-19T23:13:16.807Z,40.73
2019-01-19T23:15:45.815Z,37.23
2019-01-19T23:18:14.734Z,30.33
2019-01-19T23:20:43.830Z,33.13
2019-01-19T23:23:12.775Z,37.20
2019-01-19T23:25:41.779Z,35.03
2019-01-19T23:28:10.813Z,39.30
2019-01-19T23:30:39.824Z,29.10
2019-01-19T23:33:08.866Z,37.03
2019-01-19T23:35:37.852Z,37.30
2019-01-19T23:38:06.794Z,35.27
2019-01-19T23:40:35.810Z,38.17
2019-01-19T23:43:04.848Z,38.13
2019-01-19T23:45:33.856Z,37.13
2019-01-19T23:48:02.793Z,38.53
2019-01-19T23:50:31.786Z,37.17
2019-01-19T23:53:00.719Z,35.17
2019-01-19T23:55:29.731Z,33.13
2019-01-19T23:57:58.778Z,32.37
